Time;durP1;ratioP1;P1;durP2;ratioP2;P2;SDS_P1;SDS_P2;PMS_P1;PMS_P2;Temp;Humidity;BMP_temperature;BMP_pressure;BME280_temperature;BME280_humidity;BME280_pressure;Samples;Min_cycle;Max_cycle;Signal;HPM_P1;HPM_P2
2022/06/28 01:53:57;;;;;;;3.75;2.03;;;37.40;82.90;;;;;;4891239;29;20269;-96
2022/06/28 01:56:30;;;;;;;3.15;1.98;;;37.60;83.10;;;;;;4891753;29;20242;-96
2022/06/28 01:59:14;;;;;;;5.35;1.90;;;37.10;81.70;;;;;;4894280;29;20359;-96
2022/06/28 02:02:00;;;;;;;7.28;2.17;;;36.70;80.40;;;;;;4891945;29;20240;-96
2022/06/28 02:04:32;;;;;;;3.22;1.80;;;36.90;82.00;;;;;;4891791;29;20240;-96
2022/06/28 02:09:54;;;;;;;4.63;1.40;;;36.40;82.20;;;;;;4890370;29;20214;-96
2022/06/28 02:12:40;;;;;;;6.13;1.70;;;35.90;81.70;;;;;;4894808;29;20234;-96
2022/06/28 02:15:14;;;;;;;4.10;1.50;;;35.90;81.90;;;;;;4900653;29;20238;-96
2022/06/28 02:21:14;;;;;;;3.85;1.25;;;35.30;79.60;;;;;;4899912;29;20203;-96
2022/06/28 02:23:49;;;;;;;4.60;1.40;;;35.60;79.00;;;;;;4900675;29;20210;-96
2022/06/28 05:24:30;;;;;;;2.67;1.00;;;23.50;87.10;;;;;;4914958;29;20291;-96
2022/06/28 05:27:11;;;;;;;4.70;1.10;;;23.40;87.70;;;;;;4915932;29;20241;-96
2022/06/28 05:36:09;;;;;;;3.60;0.80;;;23.20;87.50;;;;;;4913181;29;20236;-96
2022/06/28 05:38:51;;;;;;;2.87;0.73;;;23.10;88.00;;;;;;4911596;29;20240;-96
2022/06/28 06:14:25;;;;;;;1.20;0.77;;;22.00;91.40;;;;;;4916368;29;20288;-96
2022/06/28 06:24:14;;;;;;;2.57;1.07;;;21.60;92.10;;;;;;4915290;29;20194;-96
2022/06/28 06:30:00;;;;;;;2.27;0.90;;;21.40;92.80;;;;;;4911708;29;20308;-96
2022/06/28 06:32:46;;;;;;;2.23;0.90;;;21.30;92.90;;;;;;4910455;29;20217;-96
2022/06/28 06:38:19;;;;;;;4.07;1.10;;;21.20;93.30;;;;;;4910305;29;20242;-96
2022/06/28 06:41:22;;;;;;;2.23;0.80;;;21.10;93.50;;;;;;4909882;29;20220;-96
2022/06/28 06:44:29;;;;;;;1.17;0.90;;;21.10;93.70;;;;;;4917820;29;20213;-96
2022/06/28 07:08:14;;;;;;;3.33;1.37;;;20.20;96.50;;;;;;4917052;29;20257;-96
2022/06/28 07:20:17;;;;;;;3.23;1.43;;;19.80;99.50;;;;;;4918466;29;20215;-96
2022/06/28 07:23:05;;;;;;;7.80;1.60;;;19.70;99.80;;;;;;4917751;29;20213;-96
2022/06/28 07:28:48;;;;;;;7.03;1.60;;;19.30;99.90;;;;;;4921841;29;20234;-96
2022/06/28 07:32:11;;;;;;;4.90;1.40;;;19.20;99.90;;;;;;5329402;23;20253;-96
2022/06/28 07:34:58;;;;;;;3.73;1.40;;;19.00;99.90;;;;;;4915397;29;20205;-96
2022/06/28 07:37:36;;;;;;;6.60;1.60;;;18.80;99.90;;;;;;4914263;29;20209;-96
2022/06/28 07:40:29;;;;;;;5.17;1.70;;;18.60;99.90;;;;;;4909310;29;20216;-96
2022/06/28 07:43:16;;;;;;;4.70;1.80;;;18.50;99.90;;;;;;4906818;29;20672;-96
2022/06/28 07:48:55;;;;;;;5.97;2.00;;;18.30;99.90;;;;;;4891914;29;20236;-96
2022/06/28 08:22:43;;;;;;;7.00;2.80;;;16.70;99.90;;;;;;4902188;29;20254;-96
2022/06/28 08:25:28;;;;;;;8.80;2.97;;;16.50;99.90;;;;;;4902084;29;20233;-96
2022/06/28 08:34:08;;;;;;;9.53;2.53;;;16.30;99.90;;;;;;4897009;29;20217;-96
2022/06/28 08:36:44;;;;;;;8.40;2.70;;;16.30;99.90;;;;;;4892994;29;20210;-96
2022/06/28 08:39:28;;;;;;;9.77;3.10;;;16.20;99.90;;;;;;4889240;29;20249;-96
2022/06/28 08:42:08;;;;;;;11.40;2.93;;;16.10;99.90;;;;;;4885836;29;20277;-96
2022/06/28 08:44:43;;;;;;;8.50;3.07;;;16.10;99.90;;;;;;4888278;29;20262;-96
2022/06/28 08:50:18;;;;;;;7.53;3.07;;;15.90;99.90;;;;;;4888312;29;20222;-96
2022/06/28 08:56:02;;;;;;;6.47;2.23;;;15.90;99.90;;;;;;4891196;29;20243;-96
2022/06/28 09:08:13;;;;;;;9.80;3.30;;;15.90;99.90;;;;;;4923337;29;20212;-96
2022/06/28 09:17:26;;;;;;;10.27;2.87;;;15.80;99.90;;;;;;4902650;29;20231;-95
2022/06/28 09:20:03;;;;;;;6.27;2.40;;;15.80;99.90;;;;;;4902248;29;20238;-96
2022/06/28 09:22:46;;;;;;;11.23;2.90;;;15.80;99.90;;;;;;5059288;23;20241;-96
2022/06/28 09:25:42;;;;;;;8.33;3.20;;;15.80;99.90;;;;;;4917039;29;20206;-96
2022/06/28 09:28:29;;;;;;;7.13;2.57;;;15.70;99.90;;;;;;4914706;29;20227;-96
2022/06/28 09:31:27;;;;;;;9.43;2.43;;;15.70;99.90;;;;;;4911387;29;20209;-96
2022/06/28 09:34:14;;;;;;;7.70;3.00;;;15.60;99.90;;;;;;4910817;29;20217;-96
2022/06/28 09:37:00;;;;;;;9.10;3.10;;;15.60;99.90;;;;;;4913868;29;20246;-96
2022/06/28 09:39:38;;;;;;;5.50;2.47;;;15.30;99.90;;;;;;4912072;29;20269;-96
2022/06/28 09:42:13;;;;;;;8.57;3.00;;;15.20;99.90;;;;;;4910248;29;20282;-96
2022/06/28 09:50:38;;;;;;;9.17;3.13;;;15.10;99.90;;;;;;4908790;29;20680;-96
2022/06/28 09:53:20;;;;;;;7.17;3.10;;;15.10;99.90;;;;;;4909283;29;20235;-96
2022/06/28 09:55:56;;;;;;;7.83;2.80;;;15.10;99.90;;;;;;4910490;29;20217;-96
2022/06/28 10:04:14;;;;;;;10.60;2.93;;;15.10;99.90;;;;;;5024578;23;20248;-96
2022/06/28 10:22:15;;;;;;;9.93;2.90;;;14.70;99.90;;;;;;4922138;29;20224;-96
2022/06/28 10:24:58;;;;;;;7.07;3.60;;;14.70;99.90;;;;;;4921833;29;20193;-96
2022/06/28 10:28:01;;;;;;;9.17;3.47;;;14.70;99.90;;;;;;4922327;29;20269;-96
2022/06/28 10:30:42;;;;;;;9.47;3.47;;;14.80;99.90;;;;;;4921441;29;20221;-96
2022/06/28 10:33:45;;;;;;;8.53;3.60;;;14.60;99.90;;;;;;4922131;29;20225;-96
2022/06/28 10:36:33;;;;;;;6.43;3.20;;;14.70;99.90;;;;;;4922137;29;20210;-96
2022/06/28 10:39:32;;;;;;;10.87;3.40;;;14.60;99.90;;;;;;4922368;29;20223;-96
2022/06/28 10:42:16;;;;;;;7.83;3.37;;;14.60;99.90;;;;;;4921536;29;20294;-96
2022/06/28 10:44:54;;;;;;;7.40;3.27;;;14.50;99.90;;;;;;4922126;29;20201;-96
2022/06/28 10:47:28;;;;;;;11.07;3.60;;;14.50;99.90;;;;;;4922149;29;20201;-96
2022/06/28 10:53:03;;;;;;;7.33;3.57;;;14.50;99.90;;;;;;4909940;29;20225;-96
2022/06/28 10:55:34;;;;;;;7.13;4.00;;;14.50;99.90;;;;;;4909437;29;20264;-96
2022/06/28 10:58:12;;;;;;;8.60;3.20;;;14.50;99.90;;;;;;4907417;29;20209;-96
2022/06/28 11:00:57;;;;;;;10.53;3.20;;;14.50;99.90;;;;;;4909598;29;20241;-96
2022/06/28 11:03:34;;;;;;;11.03;3.60;;;14.50;99.90;;;;;;4909994;29;20235;-95
2022/06/28 11:06:08;;;;;;;9.70;3.40;;;14.50;99.90;;;;;;4907477;29;20672;-96
2022/06/28 11:08:58;;;;;;;7.03;2.97;;;14.50;99.90;;;;;;4911343;29;20217;-96
2022/06/28 11:11:39;;;;;;;7.33;3.10;;;14.40;99.90;;;;;;4909705;29;20225;-96
2022/06/28 11:45:28;;;;;;;6.40;3.10;;;14.20;99.90;;;;;;4910070;29;20317;-96
2022/06/28 11:48:17;;;;;;;7.87;2.80;;;14.20;99.90;;;;;;4907995;29;20214;-96
2022/06/28 11:51:04;;;;;;;5.23;2.67;;;14.10;99.90;;;;;;4892055;29;20226;-96
2022/06/28 11:56:59;;;;;;;6.97;2.90;;;14.10;99.90;;;;;;4891321;29;20725;-96
2022/06/28 11:59:58;;;;;;;6.77;2.47;;;14.20;99.90;;;;;;4888675;29;20342;-96
2022/06/28 12:02:52;;;;;;;6.90;2.90;;;14.10;99.90;;;;;;4884106;29;20233;-96
2022/06/28 12:08:22;;;;;;;8.27;3.00;;;14.10;99.90;;;;;;4885124;29;20218;-96
2022/06/28 12:10:57;;;;;;;6.77;2.60;;;14.10;99.90;;;;;;4884301;29;20708;-96
2022/06/28 12:13:39;;;;;;;7.87;2.80;;;14.00;99.90;;;;;;4885600;29;20217;-96
2022/06/28 12:16:19;;;;;;;8.07;2.73;;;14.00;99.90;;;;;;4886028;29;20222;-96
2022/06/28 12:18:56;;;;;;;8.13;2.70;;;14.10;99.90;;;;;;4884644;29;20210;-96
2022/06/28 12:21:28;;;;;;;6.63;2.83;;;14.10;99.90;;;;;;4883810;29;20237;-96
2022/06/28 12:26:56;;;;;;;7.07;2.33;;;14.10;99.90;;;;;;4885482;29;20218;-96
2022/06/28 12:29:36;;;;;;;7.20;2.73;;;14.10;99.90;;;;;;4888160;29;20217;-96
2022/06/28 12:32:20;;;;;;;7.43;2.70;;;14.10;99.90;;;;;;4891659;29;20222;-96
2022/06/28 12:35:15;;;;;;;9.60;2.70;;;14.00;99.90;;;;;;4890109;29;20217;-96
2022/06/28 12:37:54;;;;;;;8.17;3.03;;;14.00;99.90;;;;;;4892527;29;20210;-96
2022/06/28 12:40:34;;;;;;;7.07;2.93;;;13.90;99.90;;;;;;4889733;29;20248;-96
2022/06/28 12:43:14;;;;;;;8.63;3.27;;;13.90;99.90;;;;;;4903543;29;20222;-96
2022/06/28 12:45:59;;;;;;;7.10;2.83;;;14.00;99.90;;;;;;4888079;29;20214;-95
2022/06/28 12:48:44;;;;;;;7.57;3.27;;;13.90;99.90;;;;;;4886201;29;20214;-96
2022/06/28 12:51:26;;;;;;;12.17;3.93;;;13.90;99.90;;;;;;4887232;29;20266;-96
2022/06/28 12:54:00;;;;;;;7.50;3.00;;;13.90;99.90;;;;;;4890079;29;20249;-96
2022/06/28 12:56:37;;;;;;;7.80;2.73;;;13.90;99.90;;;;;;4897151;29;20210;-96
2022/06/28 13:02:03;;;;;;;8.30;3.37;;;13.90;99.90;;;;;;4890250;29;20222;-96
2022/06/28 13:04:37;;;;;;;9.10;2.97;;;13.80;99.90;;;;;;4887231;29;20214;-95
2022/06/28 13:07:13;;;;;;;8.63;3.17;;;13.90;99.90;;;;;;4888288;29;20218;-95
2022/06/28 13:09:57;;;;;;;7.50;2.93;;;13.90;99.90;;;;;;4887977;29;20696;-96
2022/06/28 13:15:19;;;;;;;9.10;3.50;;;13.80;99.90;;;;;;4888123;29;20632;-96
2022/06/28 13:23:27;;;;;;;10.93;3.07;;;13.80;99.90;;;;;;4888514;29;20226;-96
2022/06/28 13:26:02;;;;;;;10.57;2.80;;;13.80;99.90;;;;;;4889340;29;20251;-96
2022/06/28 13:28:47;;;;;;;8.07;2.87;;;13.80;99.90;;;;;;4888312;29;20225;-96
2022/06/28 13:34:16;;;;;;;10.93;3.00;;;13.80;99.90;;;;;;4889716;29;20215;-96
2022/06/28 13:39:39;;;;;;;10.20;2.90;;;13.80;99.90;;;;;;4891044;29;20638;-95
2022/06/28 13:42:16;;;;;;;11.10;2.73;;;13.90;99.90;;;;;;4901976;29;20230;-96
2022/06/28 13:47:37;;;;;;;8.00;2.90;;;13.90;99.90;;;;;;4903865;29;20262;-96
2022/06/28 13:50:13;;;;;;;7.93;2.60;;;14.00;99.90;;;;;;4901459;29;20254;-96
2022/06/28 13:52:53;;;;;;;8.20;2.60;;;14.00;99.90;;;;;;4901658;29;20270;-96
2022/06/28 13:55:27;;;;;;;9.60;2.73;;;14.10;99.90;;;;;;4896349;29;20214;-96
2022/06/28 13:57:59;;;;;;;8.17;2.00;;;14.20;99.90;;;;;;4887908;29;20643;-96
2022/06/28 14:00:44;;;;;;;8.70;2.40;;;14.30;99.90;;;;;;4887042;29;20333;-95
2022/06/28 14:06:14;;;;;;;10.33;2.53;;;14.40;99.90;;;;;;4886453;29;20218;-96
2022/06/28 14:08:51;;;;;;;7.03;2.60;;;14.40;99.90;;;;;;4886691;29;20742;-96
2022/06/28 14:11:22;;;;;;;9.57;2.50;;;14.40;99.90;;;;;;4885742;29;20210;-96
2022/06/28 14:13:54;;;;;;;9.90;2.37;;;14.40;99.90;;;;;;4886844;29;20218;-96
2022/06/28 14:16:27;;;;;;;9.10;2.80;;;14.40;99.90;;;;;;4886460;29;20214;-96
2022/06/28 14:19:00;;;;;;;9.90;2.83;;;14.40;99.90;;;;;;4886064;29;20214;-96
2022/06/28 14:21:48;;;;;;;7.97;2.30;;;14.50;99.90;;;;;;4886089;29;20264;-96
2022/06/28 14:24:21;;;;;;;7.13;2.27;;;14.70;99.90;;;;;;4887427;29;20229;-96
2022/06/28 14:26:55;;;;;;;12.07;3.03;;;14.70;99.90;;;;;;4887343;29;20238;-96
2022/06/28 14:29:35;;;;;;;11.53;2.63;;;14.80;99.90;;;;;;4887452;29;20206;-96
2022/06/28 14:32:08;;;;;;;12.40;2.97;;;14.90;99.90;;;;;;4887248;29;20240;-96
2022/06/28 14:34:44;;;;;;;14.10;2.93;;;15.00;99.90;;;;;;4889117;29;20677;-96
2022/06/28 14:40:26;;;;;;;10.23;2.33;;;15.10;99.90;;;;;;4891030;29;20207;-96
2022/06/28 15:06:20;;;;;;;12.17;2.83;;;15.40;99.90;;;;;;5088031;23;20305;-96
2022/06/28 15:08:56;;;;;;;9.97;2.50;;;15.30;99.90;;;;;;4902561;29;20216;-96
2022/06/28 15:17:19;;;;;;;11.50;2.80;;;15.80;99.90;;;;;;4902476;29;20209;-96
2022/06/28 15:19:55;;;;;;;11.53;2.63;;;16.10;99.90;;;;;;4902114;29;20197;-96
2022/06/28 16:00:10;;;;;;;7.50;2.30;;;17.20;99.90;;;;;;5234674;23;20257;-96
2022/06/28 16:02:43;;;;;;;6.87;2.47;;;17.10;99.90;;;;;;4902470;29;20234;-96
2022/06/28 16:05:18;;;;;;;6.07;1.97;;;16.90;99.90;;;;;;4906392;29;20198;-95
2022/06/28 16:07:50;;;;;;;8.97;2.13;;;16.90;99.90;;;;;;4906447;29;20201;-95
2022/06/28 16:10:25;;;;;;;8.00;2.27;;;17.10;99.90;;;;;;4906212;29;20196;-96
2022/06/28 16:13:02;;;;;;;8.97;2.53;;;17.00;99.90;;;;;;4903134;29;20210;-96
2022/06/28 16:15:41;;;;;;;7.23;2.13;;;17.20;99.90;;;;;;4901555;29;20246;-96
2022/06/28 16:18:19;;;;;;;9.77;2.43;;;17.20;99.90;;;;;;4900404;29;20202;-96
2022/06/28 16:20:56;;;;;;;11.47;2.27;;;17.20;99.90;;;;;;4902184;29;20206;-96
2022/06/28 16:23:27;;;;;;;11.10;2.23;;;17.40;99.90;;;;;;4918376;29;20214;-96
2022/06/28 16:26:01;;;;;;;6.93;2.13;;;17.40;99.90;;;;;;4899416;29;20214;-96
2022/06/28 16:28:34;;;;;;;6.33;2.07;;;17.50;99.90;;;;;;4900720;29;20239;-96
2022/06/28 16:31:08;;;;;;;6.13;1.70;;;16.90;99.90;;;;;;4898860;29;20649;-96
2022/06/28 16:33:53;;;;;;;11.60;2.17;;;16.70;99.90;;;;;;4891927;29;20726;-96
2022/06/28 16:36:37;;;;;;;8.27;1.90;;;16.60;99.90;;;;;;4894044;29;20214;-96
2022/06/28 16:45:31;;;;;;;6.43;1.77;;;16.90;99.90;;;;;;4893395;29;20224;-96
2022/06/28 16:48:06;;;;;;;8.93;2.70;;;17.00;99.90;;;;;;4889552;29;20214;-96
2022/06/28 16:50:38;;;;;;;5.33;1.70;;;17.40;99.90;;;;;;4888545;29;20259;-96
2022/06/28 16:58:53;;;;;;;4.17;1.23;;;17.40;99.90;;;;;;4891782;29;20214;-96
2022/06/28 17:01:33;;;;;;;3.80;1.47;;;17.20;99.90;;;;;;4890836;29;20254;-96
2022/06/28 17:04:09;;;;;;;9.60;1.70;;;17.10;99.90;;;;;;4889442;29;20245;-96
2022/06/28 17:09:35;;;;;;;6.00;1.90;;;16.90;99.90;;;;;;4890590;29;20225;-96
2022/06/28 17:15:04;;;;;;;7.03;1.80;;;17.00;99.90;;;;;;4888035;29;20249;-96
2022/06/28 17:20:42;;;;;;;5.03;1.50;;;17.10;99.90;;;;;;4888775;29;20243;-95
2022/06/28 17:23:15;;;;;;;7.30;1.70;;;17.10;99.90;;;;;;4890592;29;20262;-96
2022/06/28 17:25:56;;;;;;;5.43;1.40;;;17.40;99.90;;;;;;4892109;29;20210;-96
2022/06/28 17:34:14;;;;;;;5.07;1.50;;;17.60;99.90;;;;;;4894881;29;20296;-96
2022/06/28 17:36:59;;;;;;;3.60;1.50;;;17.40;99.90;;;;;;4890691;29;20221;-96
2022/06/28 17:45:24;;;;;;;6.23;1.53;;;17.00;99.90;;;;;;4898760;29;20222;-96
2022/06/28 17:48:14;;;;;;;6.43;1.73;;;17.10;99.90;;;;;;4897284;29;20631;-96
2022/06/28 17:50:49;;;;;;;4.87;1.50;;;17.10;99.90;;;;;;4897447;29;20697;-96
2022/06/28 17:53:37;;;;;;;7.33;2.23;;;17.10;99.90;;;;;;4895558;29;20638;-96
2022/06/28 17:56:11;;;;;;;5.03;1.77;;;17.00;99.90;;;;;;4896815;29;20213;-96
2022/06/28 17:58:50;;;;;;;5.13;1.67;;;16.90;99.90;;;;;;4897589;29;20658;-96
2022/06/28 18:04:38;;;;;;;6.10;1.70;;;17.10;99.90;;;;;;4897730;29;20214;-96
2022/06/28 18:07:25;;;;;;;5.30;1.43;;;17.20;99.90;;;;;;4894370;29;20569;-96
2022/06/28 18:10:06;;;;;;;4.03;1.57;;;17.10;99.90;;;;;;4890964;29;20214;-96
2022/06/28 18:12:39;;;;;;;8.27;1.53;;;17.30;99.90;;;;;;4892738;29;20262;-96
2022/06/28 18:15:13;;;;;;;4.53;1.30;;;17.30;99.90;;;;;;4889564;29;20215;-96
2022/06/28 18:17:45;;;;;;;3.27;1.17;;;17.40;99.90;;;;;;4890506;29;20266;-96
2022/06/28 18:20:17;;;;;;;3.57;1.07;;;17.30;99.90;;;;;;4897879;29;20218;-96
2022/06/28 18:31:37;;;;;;;4.30;1.40;;;17.10;99.90;;;;;;4887785;29;20294;-96
2022/06/28 18:34:15;;;;;;;4.27;1.40;;;17.00;99.90;;;;;;4887383;29;20211;-96
2022/06/28 18:39:33;;;;;;;3.17;1.17;;;17.70;99.90;;;;;;4889316;29;20226;-96
2022/06/28 18:42:14;;;;;;;2.10;0.93;;;17.70;99.90;;;;;;4886814;29;20265;-96
2022/06/28 18:44:52;;;;;;;3.50;1.10;;;17.90;99.90;;;;;;4892765;29;20229;-96
2022/06/28 18:50:29;;;;;;;5.20;1.20;;;17.50;99.90;;;;;;4892421;29;20676;-96
2022/06/28 18:53:19;;;;;;;4.97;1.50;;;17.30;99.90;;;;;;4892825;29;20258;-96
2022/06/28 18:55:59;;;;;;;4.13;1.40;;;17.40;99.90;;;;;;4890535;29;20238;-96
2022/06/28 19:02:40;;;;;;;3.57;1.10;;;18.00;99.90;;;;;;4900194;29;20210;-96
2022/06/28 19:05:38;;;;;;;4.23;1.20;;;18.30;99.90;;;;;;4998521;23;20234;-96
2022/06/28 19:08:12;;;;;;;2.40;1.07;;;17.70;99.90;;;;;;4902513;29;20198;-96
2022/06/28 19:10:52;;;;;;;4.70;1.23;;;17.70;99.90;;;;;;4900837;29;20214;-96
2022/06/28 19:13:37;;;;;;;3.63;0.93;;;18.00;99.90;;;;;;4901311;29;20217;-96
2022/06/28 19:16:15;;;;;;;3.33;1.13;;;18.00;99.90;;;;;;4897361;29;20202;-96
2022/06/28 19:21:41;;;;;;;3.33;1.20;;;18.70;99.90;;;;;;4885136;29;20217;-96
2022/06/28 19:24:16;;;;;;;2.67;1.13;;;19.30;99.90;;;;;;4887174;29;20245;-96
2022/06/28 19:26:51;;;;;;;2.60;1.20;;;19.30;99.90;;;;;;4887154;29;20214;-96
2022/06/28 19:35:38;;;;;;;3.20;1.00;;;18.80;99.90;;;;;;4894288;29;20217;-96
2022/06/28 19:41:11;;;;;;;3.20;1.43;;;19.00;99.90;;;;;;4885424;29;20214;-95
2022/06/28 19:43:49;;;;;;;2.27;0.83;;;18.70;99.90;;;;;;4891522;29;20269;-96
2022/06/28 19:46:35;;;;;;;5.60;1.17;;;18.90;99.90;;;;;;4886070;29;20228;-96
2022/06/28 19:49:44;;;;;;;4.03;1.20;;;19.00;99.90;;;;;;4893363;29;20244;-96
2022/06/28 20:11:17;;;;;;;3.00;1.20;;;18.40;99.90;;;;;;4866896;29;20263;-96
2022/06/28 20:14:03;;;;;;;2.93;1.10;;;18.30;99.90;;;;;;4867556;29;20297;-96
2022/06/28 20:16:36;;;;;;;2.67;1.27;;;18.30;99.90;;;;;;4864530;29;20762;-96
2022/06/28 20:19:16;;;;;;;4.73;1.30;;;18.50;99.90;;;;;;4870728;29;20236;-96
2022/06/28 20:21:48;;;;;;;4.60;1.40;;;18.30;99.90;;;;;;4862757;29;20218;-96
2022/06/28 20:24:20;;;;;;;3.97;1.13;;;18.50;99.90;;;;;;4864050;29;20239;-96
2022/06/28 20:27:14;;;;;;;4.17;1.53;;;18.60;99.90;;;;;;4865060;29;20203;-95
2022/06/28 20:29:48;;;;;;;4.60;1.40;;;18.50;99.90;;;;;;4864633;29;20219;-96
2022/06/28 20:32:20;;;;;;;3.83;1.03;;;18.50;99.90;;;;;;4863650;29;20267;-96
2022/06/28 20:35:07;;;;;;;3.60;1.37;;;18.50;99.90;;;;;;4864162;29;20664;-96
2022/06/28 20:37:42;;;;;;;2.80;1.30;;;18.70;99.90;;;;;;4866581;29;20267;-95
2022/06/28 20:40:14;;;;;;;4.60;1.60;;;18.90;99.90;;;;;;4865389;29;20229;-96
2022/06/28 20:45:50;;;;;;;2.83;1.37;;;19.30;99.90;;;;;;4864365;29;20216;-96
2022/06/28 20:48:30;;;;;;;3.43;1.30;;;19.40;99.90;;;;;;4865895;29;20645;-96
2022/06/28 20:51:14;;;;;;;2.80;1.30;;;19.80;99.90;;;;;;4867944;29;20226;-96
2022/06/28 20:53:58;;;;;;;2.80;1.40;;;19.50;99.90;;;;;;4874502;29;20215;-96
2022/06/28 21:00:00;;;;;;;3.70;1.20;;;19.10;99.90;;;;;;4872523;29;20215;-96
2022/06/28 21:11:38;;;;;;;3.07;1.20;;;19.10;99.90;;;;;;4904440;29;20225;-96
2022/06/28 21:19:58;;;;;;;2.87;1.20;;;18.90;99.90;;;;;;4902324;29;20259;-96
2022/06/28 21:22:47;;;;;;;2.33;0.87;;;18.80;99.90;;;;;;4894205;29;20210;-96
2022/06/28 21:25:23;;;;;;;1.73;1.00;;;18.80;99.90;;;;;;4890033;29;20754;-96
2022/06/28 21:33:49;;;;;;;4.07;1.20;;;18.90;99.90;;;;;;4895584;29;20316;-96
2022/06/28 21:36:40;;;;;;;3.63;0.80;;;19.10;99.90;;;;;;4896744;29;20587;-96
2022/06/28 21:39:27;;;;;;;1.60;0.87;;;19.30;99.90;;;;;;4896582;29;20214;-96
2022/06/28 21:42:25;;;;;;;3.70;1.27;;;19.50;99.90;;;;;;4892635;29;20284;-96
2022/06/28 21:44:57;;;;;;;2.80;1.27;;;19.80;99.90;;;;;;4886395;29;20242;-96
2022/06/28 21:50:28;;;;;;;2.57;1.07;;;19.60;99.90;;;;;;4894100;29;20270;-96
2022/06/28 21:57:12;;;;;;;3.97;1.00;;;19.90;99.90;;;;;;4900783;29;20203;-96
2022/06/28 22:03:51;;;;;;;1.80;0.90;;;19.70;99.90;;;;;;4893765;29;20234;-96
2022/06/28 22:06:55;;;;;;;2.50;1.00;;;19.80;99.90;;;;;;4893844;29;20210;-96
2022/06/28 22:18:26;;;;;;;3.83;1.20;;;18.90;99.90;;;;;;4894166;29;20222;-96
2022/06/28 22:21:01;;;;;;;2.03;1.00;;;18.90;99.90;;;;;;4896162;29;20222;-96
2022/06/28 22:27:16;;;;;;;1.30;1.00;;;18.70;99.90;;;;;;4895940;29;20214;-96
2022/06/28 22:33:04;;;;;;;5.80;1.37;;;18.90;99.90;;;;;;4968622;23;20266;-96
2022/06/28 22:35:38;;;;;;;1.73;1.10;;;18.80;99.90;;;;;;4900593;29;20206;-96
2022/06/28 22:38:16;;;;;;;3.47;1.10;;;19.00;99.90;;;;;;4902414;29;20255;-96
2022/06/28 22:40:56;;;;;;;2.67;1.03;;;18.80;99.90;;;;;;4901543;29;20274;-96
2022/06/28 22:43:44;;;;;;;3.53;1.20;;;18.80;99.90;;;;;;4900563;29;20248;-96
2022/06/28 23:36:11;;;;;;;3.50;1.37;;;17.90;99.90;;;;;;4863818;29;20219;-96
2022/06/28 23:38:43;;;;;;;3.97;1.23;;;17.80;99.90;;;;;;5510768;23;20238;-96
2022/06/28 23:41:16;;;;;;;2.97;1.10;;;17.70;99.90;;;;;;4901969;29;20198;-96
2022/06/28 23:43:57;;;;;;;3.63;0.80;;;17.80;99.90;;;;;;4902454;29;20238;-94
2022/06/28 23:46:30;;;;;;;3.07;0.90;;;17.50;99.90;;;;;;4902462;29;20198;-96
2022/06/28 23:49:02;;;;;;;2.70;0.90;;;17.40;99.90;;;;;;4902250;29;20198;-96
2022/06/28 23:51:38;;;;;;;3.73;1.20;;;17.50;99.90;;;;;;4901632;29;20230;-96
